Time;durP1;ratioP1;P1;durP2;ratioP2;P2;SDS_P1;SDS_P2;PMS_P1;PMS_P2;Temp;Humidity;BMP_temperature;BMP_pressure;BME280_temperature;BME280_humidity;BME280_pressure;Samples;Min_cycle;Max_cycle;Signal;HPM_P1;HPM_P2
2024/01/21 00:00:59;;;;;;;8.70;4.00;;;-0.10;99.90;;;;;;5063595;28;20052;-74
2024/01/21 00:03:24;;;;;;;9.35;4.18;;;-0.10;99.90;;;;;;5068745;28;20048;-74
2024/01/21 00:05:50;;;;;;;13.43;4.85;;;-0.10;99.90;;;;;;5029548;28;20041;-73
2024/01/21 00:08:16;;;;;;;13.07;5.55;;;-0.20;99.90;;;;;;5066485;28;20041;-73
2024/01/21 00:10:41;;;;;;;7.88;4.55;;;-0.10;99.90;;;;;;5069633;28;20058;-73
2024/01/21 00:13:07;;;;;;;11.40;4.63;;;-0.20;99.90;;;;;;5071201;28;20040;-73
2024/01/21 00:15:33;;;;;;;7.88;3.92;;;-0.20;99.90;;;;;;5064844;28;20446;-73
2024/01/21 00:17:58;;;;;;;6.13;3.70;;;-0.20;99.90;;;;;;5072459;28;20048;-73
2024/01/21 00:20:24;;;;;;;14.35;4.45;;;-0.20;99.90;;;;;;5076363;28;20484;-74
2024/01/21 00:22:50;;;;;;;11.60;4.00;;;-0.20;99.90;;;;;;5056954;28;20033;-74
2024/01/21 00:25:15;;;;;;;6.82;3.00;;;-0.20;99.90;;;;;;5068280;28;20031;-73
2024/01/21 00:27:41;;;;;;;8.55;3.60;;;-0.20;99.90;;;;;;5078294;28;20044;-73
2024/01/21 00:30:07;;;;;;;8.57;3.85;;;-0.20;99.90;;;;;;5097322;28;20112;-73
2024/01/21 00:32:33;;;;;;;10.40;4.72;;;-0.20;99.90;;;;;;5078537;28;20120;-74
2024/01/21 00:34:58;;;;;;;5.68;3.63;;;-0.20;99.90;;;;;;5064279;28;20084;-73
2024/01/21 00:37:24;;;;;;;7.05;3.72;;;-0.10;99.90;;;;;;5058640;28;20033;-73
2024/01/21 00:39:49;;;;;;;8.80;3.78;;;-0.10;99.90;;;;;;5069606;28;20091;-73
2024/01/21 00:42:15;;;;;;;8.40;3.58;;;-0.10;99.90;;;;;;5073995;28;20092;-74
2024/01/21 00:44:41;;;;;;;8.43;4.28;;;-0.10;99.90;;;;;;5062578;28;20509;-73
2024/01/21 00:47:06;;;;;;;8.10;4.03;;;-0.10;99.90;;;;;;5053558;28;20047;-74
2024/01/21 00:49:32;;;;;;;7.03;3.45;;;-0.10;99.90;;;;;;5081558;28;20033;-73
2024/01/21 00:51:58;;;;;;;20.52;4.22;;;-0.10;99.90;;;;;;5096091;28;20093;-74
2024/01/21 00:54:24;;;;;;;7.13;4.32;;;-0.20;99.90;;;;;;5068045;28;20140;-74
2024/01/21 00:56:50;;;;;;;9.65;3.63;;;-0.10;99.90;;;;;;5079904;28;20701;-74
2024/01/21 00:59:15;;;;;;;10.73;5.63;;;-0.10;99.90;;;;;;5071618;28;20048;-73
2024/01/21 01:01:41;;;;;;;6.18;3.88;;;0.00;99.90;;;;;;5077162;28;20063;-74
2024/01/21 01:04:07;;;;;;;10.10;3.65;;;0.00;99.90;;;;;;5070739;28;20033;-73
2024/01/21 01:06:33;;;;;;;11.30;4.47;;;0.00;99.90;;;;;;5054782;28;20050;-73
2024/01/21 01:08:59;;;;;;;7.32;3.28;;;0.00;99.90;;;;;;5071220;28;20044;-74
2024/01/21 01:11:26;;;;;;;7.55;3.30;;;0.00;99.90;;;;;;5077596;28;20070;-73
2024/01/21 01:13:51;;;;;;;5.90;3.22;;;0.00;99.90;;;;;;5079451;28;20043;-74
2024/01/21 01:16:17;;;;;;;9.43;3.22;;;0.00;99.90;;;;;;5064257;28;20049;-73
2024/01/21 01:18:43;;;;;;;5.45;3.30;;;0.00;99.90;;;;;;5070191;28;20036;-73
2024/01/21 01:21:12;;;;;;;5.07;3.03;;;0.10;99.90;;;;;;5050936;28;20080;-73
2024/01/21 01:23:38;;;;;;;6.53;3.90;;;0.10;99.90;;;;;;5062676;28;20101;-74
2024/01/21 01:26:06;;;;;;;7.22;3.85;;;0.10;99.90;;;;;;5054451;28;20045;-74
2024/01/21 01:28:31;;;;;;;14.43;4.13;;;0.10;99.90;;;;;;5070157;28;20044;-73
2024/01/21 01:30:57;;;;;;;9.38;3.75;;;0.20;99.90;;;;;;5058710;28;20559;-73
2024/01/21 01:33:24;;;;;;;8.57;3.72;;;0.10;99.90;;;;;;5067756;28;20045;-73
2024/01/21 01:35:50;;;;;;;5.88;3.13;;;0.20;99.90;;;;;;5059333;28;20079;-74
2024/01/21 01:38:16;;;;;;;9.48;3.45;;;0.20;99.90;;;;;;5058273;28;20041;-73
2024/01/21 01:40:41;;;;;;;6.18;3.10;;;0.20;99.90;;;;;;5072342;28;20056;-73
2024/01/21 01:43:07;;;;;;;6.13;3.45;;;0.20;99.90;;;;;;5043917;28;20097;-73
2024/01/21 01:45:33;;;;;;;6.35;3.15;;;0.30;99.90;;;;;;5072157;28;20051;-73
2024/01/21 01:47:58;;;;;;;6.65;2.67;;;0.30;99.90;;;;;;5063337;28;20059;-74
2024/01/21 01:50:26;;;;;;;7.13;2.95;;;0.30;99.90;;;;;;5064053;28;20025;-73
2024/01/21 01:52:52;;;;;;;7.93;3.65;;;0.30;99.90;;;;;;5073167;28;20109;-73
2024/01/21 01:55:19;;;;;;;8.25;3.90;;;0.40;99.90;;;;;;5073627;28;20112;-73
2024/01/21 01:57:48;;;;;;;11.18;3.97;;;0.40;99.90;;;;;;5065709;28;20492;-73
2024/01/21 02:00:14;;;;;;;8.32;3.22;;;0.40;99.90;;;;;;5062094;28;20096;-73
2024/01/21 02:02:43;;;;;;;4.40;1.95;;;0.40;99.90;;;;;;5080431;28;20545;-74
2024/01/21 02:05:10;;;;;;;5.85;2.28;;;0.40;99.90;;;;;;5061441;28;20137;-73
2024/01/21 02:07:35;;;;;;;5.35;2.40;;;0.50;99.90;;;;;;5075253;28;20046;-73
2024/01/21 02:10:01;;;;;;;3.58;1.90;;;0.50;99.90;;;;;;5063498;28;20056;-73
2024/01/21 02:12:28;;;;;;;5.22;1.80;;;0.60;99.90;;;;;;5080210;28;20105;-73
2024/01/21 02:14:53;;;;;;;5.50;2.28;;;0.60;99.90;;;;;;5079610;28;20051;-74
2024/01/21 02:17:19;;;;;;;7.20;1.67;;;0.70;99.90;;;;;;5078383;28;20048;-73
2024/01/21 02:19:45;;;;;;;3.35;2.10;;;0.60;99.90;;;;;;5072952;28;20479;-73
2024/01/21 02:22:12;;;;;;;3.20;1.83;;;0.70;99.90;;;;;;5079055;28;20094;-74
2024/01/21 02:24:38;;;;;;;4.90;2.35;;;0.70;99.90;;;;;;5069080;28;20116;-73
2024/01/21 02:27:04;;;;;;;7.90;2.47;;;0.60;99.90;;;;;;5072911;28;20048;-74
2024/01/21 02:29:30;;;;;;;5.15;2.03;;;0.60;99.90;;;;;;5071408;28;20369;-73
2024/01/21 02:31:57;;;;;;;4.97;1.63;;;0.60;99.90;;;;;;5078147;28;20059;-74
2024/01/21 02:34:22;;;;;;;10.73;2.58;;;0.60;99.90;;;;;;5077298;28;20049;-73
2024/01/21 02:36:48;;;;;;;3.60;2.03;;;0.70;99.90;;;;;;5059677;28;20104;-73
2024/01/21 02:39:14;;;;;;;7.95;2.33;;;0.70;99.90;;;;;;5053323;28;20100;-73
2024/01/21 02:41:40;;;;;;;7.72;2.08;;;0.70;99.90;;;;;;5044994;28;20041;-74
2024/01/21 02:44:06;;;;;;;1.88;1.38;;;0.70;99.90;;;;;;5065938;28;20029;-73
2024/01/21 02:46:31;;;;;;;3.67;1.52;;;0.70;99.90;;;;;;5070274;28;20082;-73
2024/01/21 02:48:57;;;;;;;6.50;1.88;;;0.70;99.90;;;;;;5073568;28;20045;-73
2024/01/21 02:51:23;;;;;;;3.08;1.35;;;0.90;99.90;;;;;;5062895;28;20078;-73
2024/01/21 02:53:49;;;;;;;2.58;1.48;;;0.80;99.90;;;;;;5076057;28;20068;-73
2024/01/21 02:56:23;;;;;;;4.05;1.27;;;0.80;99.90;;;;;;5073854;28;20056;-74
2024/01/21 02:58:53;;;;;;;4.50;2.70;;;0.80;99.90;;;;;;5076481;28;20055;-73
2024/01/21 03:01:19;;;;;;;4.20;1.98;;;0.80;99.90;;;;;;5061538;28;20369;-73
2024/01/21 03:03:45;;;;;;;1.10;0.85;;;0.90;99.90;;;;;;5067065;28;20068;-73
2024/01/21 03:06:11;;;;;;;3.17;2.08;;;0.90;99.90;;;;;;5066613;28;20044;-75
2024/01/21 03:08:37;;;;;;;3.08;1.10;;;0.90;99.90;;;;;;5077587;28;20041;-73
2024/01/21 03:11:03;;;;;;;2.13;1.67;;;0.90;99.90;;;;;;5079450;28;20110;-73
2024/01/21 03:13:29;;;;;;;3.40;1.92;;;0.90;99.90;;;;;;5059179;28;20094;-73
2024/01/21 03:15:55;;;;;;;2.80;1.65;;;1.00;99.90;;;;;;5076887;28;20040;-74
2024/01/21 03:18:21;;;;;;;3.30;0.90;;;0.90;99.90;;;;;;5078731;28;20454;-73
2024/01/21 03:20:47;;;;;;;3.75;1.65;;;1.00;99.90;;;;;;5067918;28;20053;-73
2024/01/21 03:23:13;;;;;;;2.03;0.85;;;1.00;99.90;;;;;;5053263;28;20029;-73
2024/01/21 03:25:39;;;;;;;2.97;1.88;;;1.00;99.90;;;;;;5058774;28;20037;-73
2024/01/21 03:28:05;;;;;;;3.03;2.03;;;1.00;99.90;;;;;;5042646;28;20524;-74
2024/01/21 03:30:31;;;;;;;2.40;1.67;;;1.00;99.90;;;;;;5070651;28;20088;-73
2024/01/21 03:32:57;;;;;;;5.10;1.75;;;1.10;99.90;;;;;;5056799;28;20045;-73
2024/01/21 03:35:22;;;;;;;2.22;1.25;;;1.00;99.90;;;;;;5056822;28;20071;-74
2024/01/21 03:37:49;;;;;;;4.03;2.13;;;1.10;99.90;;;;;;5070363;28;20368;-73
2024/01/21 03:40:15;;;;;;;4.60;1.77;;;1.00;99.90;;;;;;5065819;28;20041;-73
2024/01/21 03:42:43;;;;;;;6.40;1.85;;;1.00;99.90;;;;;;5058865;28;20048;-73
2024/01/21 03:45:09;;;;;;;2.08;1.10;;;1.00;99.90;;;;;;5062806;28;20122;-73
2024/01/21 03:47:34;;;;;;;2.92;1.13;;;1.00;99.90;;;;;;5061419;28;20492;-74
2024/01/21 03:50:01;;;;;;;3.03;1.65;;;1.00;99.90;;;;;;5060043;28;20033;-73
2024/01/21 03:52:26;;;;;;;1.98;1.00;;;1.00;99.90;;;;;;5057151;28;20531;-73
2024/01/21 03:54:53;;;;;;;2.88;1.30;;;1.00;99.90;;;;;;5061695;28;20037;-74
2024/01/21 03:57:19;;;;;;;5.47;2.05;;;1.00;99.90;;;;;;5067429;28;20075;-73
2024/01/21 03:59:44;;;;;;;7.85;1.90;;;1.00;99.90;;;;;;5074689;28;20072;-73
2024/01/21 04:02:10;;;;;;;4.43;1.50;;;1.00;99.90;;;;;;5064398;28;20425;-74
2024/01/21 04:04:36;;;;;;;1.20;1.10;;;1.00;99.90;;;;;;5062794;28;20041;-73
2024/01/21 04:07:02;;;;;;;3.90;1.83;;;1.00;99.90;;;;;;5058855;28;20041;-73
2024/01/21 04:09:27;;;;;;;0.98;0.90;;;1.00;99.90;;;;;;5061783;28;20399;-73
2024/01/21 04:11:53;;;;;;;5.03;1.52;;;1.00;99.90;;;;;;5059822;28;20029;-73
2024/01/21 04:14:18;;;;;;;3.75;1.55;;;1.00;99.90;;;;;;5063440;28;20551;-73
2024/01/21 04:16:44;;;;;;;1.67;0.90;;;1.00;99.90;;;;;;5070506;28;20033;-73
2024/01/21 04:19:10;;;;;;;2.42;0.93;;;1.10;99.90;;;;;;5062295;28;20052;-73
2024/01/21 04:21:36;;;;;;;3.30;1.48;;;1.00;99.90;;;;;;5051236;28;20041;-73
2024/01/21 04:24:02;;;;;;;1.42;1.30;;;1.00;99.90;;;;;;5070239;28;20045;-73
2024/01/21 04:26:29;;;;;;;0.70;0.70;;;1.00;99.90;;;;;;5055232;28;20527;-74
2024/01/21 04:28:54;;;;;;;1.52;0.82;;;1.00;99.90;;;;;;5073276;28;20040;-73
2024/01/21 04:31:20;;;;;;;2.17;1.30;;;0.90;99.90;;;;;;5068786;28;20105;-74
2024/01/21 04:33:46;;;;;;;3.08;1.33;;;0.90;99.90;;;;;;5060526;28;20208;-73
2024/01/21 04:36:18;;;;;;;2.97;1.40;;;0.90;99.90;;;;;;5060372;28;20059;-73
2024/01/21 04:38:45;;;;;;;3.47;1.33;;;0.90;99.90;;;;;;5064242;28;20049;-73
2024/01/21 04:41:13;;;;;;;1.55;0.80;;;0.90;99.90;;;;;;5067473;28;20036;-73
2024/01/21 04:43:39;;;;;;;2.10;1.02;;;0.90;99.90;;;;;;5059019;28;20080;-73
2024/01/21 04:46:05;;;;;;;1.83;0.75;;;0.90;99.90;;;;;;5053414;28;20100;-73
2024/01/21 04:48:30;;;;;;;1.75;1.52;;;0.90;99.90;;;;;;5088859;28;20072;-73
2024/01/21 04:50:56;;;;;;;2.10;0.98;;;0.90;99.90;;;;;;5059242;28;20043;-74
2024/01/21 04:53:22;;;;;;;2.17;1.23;;;0.90;99.90;;;;;;5079810;28;20055;-73
2024/01/21 04:55:47;;;;;;;2.15;1.23;;;0.90;99.90;;;;;;5063840;28;20061;-74
2024/01/21 04:58:13;;;;;;;1.27;1.17;;;0.90;99.90;;;;;;5067544;28;20033;-74
2024/01/21 05:00:38;;;;;;;1.23;0.85;;;0.80;99.90;;;;;;5070830;28;20260;-74
2024/01/21 05:03:04;;;;;;;0.65;0.40;;;0.90;99.90;;;;;;5081560;28;20043;-74
2024/01/21 05:05:30;;;;;;;3.03;0.70;;;0.80;99.90;;;;;;5079878;28;20507;-73
2024/01/21 05:07:56;;;;;;;1.88;1.02;;;0.80;99.90;;;;;;5081172;28;20059;-74
2024/01/21 05:10:22;;;;;;;3.85;0.98;;;0.80;99.90;;;;;;5068344;28;20076;-73
2024/01/21 05:12:47;;;;;;;3.47;0.95;;;0.80;99.90;;;;;;5059702;28;20043;-73
2024/01/21 05:15:13;;;;;;;2.58;1.30;;;0.90;99.90;;;;;;5070684;28;20123;-73
2024/01/21 05:17:39;;;;;;;1.88;1.08;;;0.90;99.90;;;;;;5069197;28;20045;-73
2024/01/21 05:20:08;;;;;;;2.38;1.02;;;0.90;99.90;;;;;;5059902;28;20484;-74
2024/01/21 05:22:34;;;;;;;1.27;1.15;;;0.90;99.90;;;;;;5027311;28;20071;-73
2024/01/21 05:25:00;;;;;;;2.17;1.17;;;0.90;99.90;;;;;;5058418;28;20057;-73
2024/01/21 05:27:25;;;;;;;3.22;1.08;;;1.00;99.90;;;;;;5067161;28;20056;-73
2024/01/21 05:29:51;;;;;;;2.38;0.90;;;1.00;99.90;;;;;;5074681;28;20060;-73
2024/01/21 05:32:17;;;;;;;1.80;1.02;;;1.10;99.90;;;;;;5047118;28;20105;-73
2024/01/21 05:34:42;;;;;;;4.32;1.00;;;1.10;99.90;;;;;;5078808;28;20044;-73
2024/01/21 05:37:08;;;;;;;2.83;0.95;;;1.20;99.90;;;;;;5062926;28;20041;-73
2024/01/21 05:39:34;;;;;;;1.83;0.70;;;1.20;99.50;;;;;;5095288;28;20064;-73
2024/01/21 05:42:03;;;;;;;1.75;0.98;;;1.40;99.90;;;;;;5069256;28;20060;-74
2024/01/21 05:44:29;;;;;;;1.95;1.30;;;1.40;99.90;;;;;;5057342;28;20205;-73
2024/01/21 05:46:55;;;;;;;3.72;0.88;;;1.30;99.90;;;;;;5062441;28;20499;-73
2024/01/21 05:49:21;;;;;;;3.00;1.13;;;1.40;99.90;;;;;;5066768;28;20059;-73
2024/01/21 05:51:47;;;;;;;2.13;1.65;;;1.40;99.90;;;;;;5075186;28;20057;-74
2024/01/21 05:54:13;;;;;;;2.42;1.08;;;1.50;99.90;;;;;;5062739;28;20059;-73
2024/01/21 05:56:38;;;;;;;1.95;1.20;;;1.50;98.20;;;;;;5066683;28;20080;-73
2024/01/21 05:59:04;;;;;;;3.10;1.85;;;1.60;99.90;;;;;;5068976;28;20476;-74
2024/01/21 06:01:30;;;;;;;3.47;1.38;;;1.60;98.90;;;;;;5057120;28;20511;-74
2024/01/21 06:03:55;;;;;;;4.25;1.45;;;1.70;99.40;;;;;;5060633;28;20033;-73
2024/01/21 06:06:21;;;;;;;4.00;1.25;;;1.70;98.50;;;;;;5055199;28;20064;-74
2024/01/21 06:08:47;;;;;;;3.65;1.77;;;1.80;99.90;;;;;;5069766;28;20048;-73
2024/01/21 06:11:12;;;;;;;2.75;1.52;;;1.80;99.00;;;;;;5079119;28;20112;-73
2024/01/21 06:13:38;;;;;;;2.80;2.03;;;1.80;98.80;;;;;;5071209;28;22571;-74
2024/01/21 06:16:04;;;;;;;5.22;1.52;;;1.70;99.80;;;;;;5071024;28;20047;-74
2024/01/21 06:18:30;;;;;;;5.22;1.35;;;1.70;99.30;;;;;;5076240;28;20048;-74
2024/01/21 06:20:55;;;;;;;3.72;1.35;;;1.70;99.10;;;;;;5043442;28;20041;-73
2024/01/21 06:23:21;;;;;;;3.03;1.50;;;1.70;99.90;;;;;;5063141;28;20051;-74
2024/01/21 06:25:47;;;;;;;2.45;1.77;;;1.70;99.90;;;;;;5067920;28;20055;-74
2024/01/21 06:28:13;;;;;;;4.82;1.90;;;1.70;99.90;;;;;;5078582;28;20084;-73
2024/01/21 06:30:38;;;;;;;5.20;1.88;;;1.70;99.90;;;;;;5075451;28;20066;-73
2024/01/21 06:33:04;;;;;;;4.85;2.33;;;1.60;99.90;;;;;;5074642;28;20043;-73
2024/01/21 06:35:30;;;;;;;5.45;2.72;;;1.60;99.90;;;;;;5058321;28;20048;-73
2024/01/21 06:37:56;;;;;;;3.42;1.98;;;1.60;99.90;;;;;;5079525;28;20096;-73
2024/01/21 06:40:22;;;;;;;5.13;2.22;;;1.60;99.90;;;;;;5053686;28;20090;-74
2024/01/21 06:42:47;;;;;;;3.28;1.40;;;1.60;99.90;;;;;;5055539;28;20522;-73
2024/01/21 06:45:13;;;;;;;3.80;2.03;;;1.60;99.90;;;;;;5061214;28;20050;-74
2024/01/21 06:47:40;;;;;;;5.13;2.47;;;1.50;99.90;;;;;;5075449;28;20052;-73
2024/01/21 06:50:06;;;;;;;3.15;1.73;;;1.60;99.90;;;;;;5065179;28;20040;-73
2024/01/21 06:52:32;;;;;;;3.40;1.98;;;1.50;99.90;;;;;;5073470;28;20046;-73
2024/01/21 06:54:57;;;;;;;5.22;2.22;;;1.50;99.90;;;;;;5070926;28;20135;-73
2024/01/21 06:57:23;;;;;;;4.22;1.85;;;1.50;99.90;;;;;;5037683;28;20043;-73
2024/01/21 06:59:50;;;;;;;10.10;2.30;;;1.50;99.90;;;;;;5055510;28;20045;-73
2024/01/21 07:02:16;;;;;;;2.08;1.30;;;1.50;99.90;;;;;;5041564;28;20095;-73
2024/01/21 07:04:41;;;;;;;6.05;1.75;;;1.50;99.90;;;;;;5057071;28;20041;-73
2024/01/21 07:07:08;;;;;;;2.85;0.95;;;1.50;99.90;;;;;;5041272;28;20049;-74
2024/01/21 07:09:34;;;;;;;12.20;2.10;;;1.50;99.90;;;;;;5057577;28;20049;-74
2024/01/21 07:12:00;;;;;;;5.50;1.85;;;1.50;99.90;;;;;;5057861;28;20048;-73
2024/01/21 07:14:26;;;;;;;3.15;1.52;;;1.50;99.90;;;;;;5056904;28;20067;-73
2024/01/21 07:16:51;;;;;;;2.97;1.95;;;1.60;99.90;;;;;;5057681;28;20033;-73
2024/01/21 07:19:17;;;;;;;4.40;1.65;;;1.60;99.90;;;;;;5058696;28;20044;-73
2024/01/21 07:21:43;;;;;;;4.75;1.70;;;1.50;99.90;;;;;;5039854;28;20049;-74
2024/01/21 07:24:08;;;;;;;2.80;1.30;;;1.60;99.90;;;;;;5056548;28;20041;-74
2024/01/21 07:26:34;;;;;;;3.60;1.13;;;1.60;99.90;;;;;;5055779;28;20045;-73
2024/01/21 07:29:00;;;;;;;4.85;1.75;;;1.60;99.90;;;;;;5056154;28;20083;-73
2024/01/21 07:31:25;;;;;;;4.00;1.70;;;1.60;99.90;;;;;;5055511;28;20076;-73
2024/01/21 07:33:51;;;;;;;5.38;2.65;;;1.60;99.90;;;;;;5059797;28;20045;-74
2024/01/21 07:36:17;;;;;;;3.22;2.10;;;1.60;99.90;;;;;;5075066;28;20068;-74
2024/01/21 07:38:42;;;;;;;4.47;2.25;;;1.60;99.90;;;;;;5044422;28;20034;-73
2024/01/21 07:41:08;;;;;;;1.98;1.40;;;1.60;99.90;;;;;;5059663;28;20040;-73
2024/01/21 07:43:34;;;;;;;3.63;2.28;;;1.60;99.90;;;;;;5051117;28;20044;-74
2024/01/21 07:45:59;;;;;;;2.65;1.90;;;1.60;99.90;;;;;;5060947;28;20052;-73
2024/01/21 07:48:25;;;;;;;2.70;1.50;;;1.60;99.90;;;;;;5066806;28;20066;-73
2024/01/21 07:50:51;;;;;;;1.95;1.33;;;1.60;99.90;;;;;;5071270;28;20037;-74
2024/01/21 07:53:20;;;;;;;3.08;1.73;;;1.60;99.90;;;;;;5059725;28;20439;-73
2024/01/21 07:55:46;;;;;;;1.58;1.23;;;1.60;99.90;;;;;;5087436;28;20053;-73
2024/01/21 07:58:15;;;;;;;5.78;1.95;;;1.60;99.90;;;;;;5051726;28;20043;-74
2024/01/21 08:00:42;;;;;;;4.03;1.80;;;1.70;99.90;;;;;;5067784;28;20080;-73
2024/01/21 08:03:08;;;;;;;3.67;2.17;;;1.60;99.90;;;;;;5063439;28;20680;-73
2024/01/21 08:05:33;;;;;;;5.60;2.58;;;1.60;99.90;;;;;;5071630;28;20475;-73
2024/01/21 08:07:59;;;;;;;6.47;1.92;;;1.60;99.90;;;;;;5068450;28;20049;-73
2024/01/21 08:10:25;;;;;;;5.30;2.45;;;1.70;99.90;;;;;;5078391;28;20082;-74
2024/01/21 08:12:50;;;;;;;2.47;1.23;;;1.60;99.90;;;;;;5058546;28;20052;-74
2024/01/21 08:15:16;;;;;;;5.20;2.35;;;1.70;99.90;;;;;;5062272;28;20481;-73
2024/01/21 08:17:42;;;;;;;2.15;1.33;;;1.70;99.90;;;;;;5043405;28;20045;-74
2024/01/21 08:20:09;;;;;;;4.43;1.55;;;1.80;99.90;;;;;;5058445;28;20138;-74
2024/01/21 08:22:36;;;;;;;4.20;1.85;;;1.80;99.90;;;;;;5048855;28;20075;-73
2024/01/21 08:25:02;;;;;;;7.28;2.60;;;1.80;99.90;;;;;;5076822;28;20556;-73
2024/01/21 08:27:28;;;;;;;4.43;2.08;;;1.90;99.90;;;;;;5057208;28;20056;-73
2024/01/21 08:29:54;;;;;;;5.35;2.53;;;1.90;99.90;;;;;;5089824;28;20044;-74
2024/01/21 08:32:20;;;;;;;8.02;2.55;;;1.90;99.90;;;;;;5067514;28;20041;-73
2024/01/21 08:34:45;;;;;;;3.55;1.67;;;2.00;99.90;;;;;;5065108;28;20076;-73
2024/01/21 08:37:11;;;;;;;3.80;1.77;;;2.00;99.90;;;;;;5075105;28;20033;-74
2024/01/21 08:39:37;;;;;;;2.55;1.88;;;2.10;99.90;;;;;;5069103;28;20083;-73
2024/01/21 08:42:03;;;;;;;3.67;1.50;;;2.10;99.90;;;;;;5080750;28;20048;-73
2024/01/21 08:44:29;;;;;;;3.47;2.25;;;2.10;99.90;;;;;;5074034;28;20053;-73
2024/01/21 08:46:55;;;;;;;3.17;1.80;;;2.00;99.90;;;;;;5080310;28;20048;-73
2024/01/21 08:49:22;;;;;;;4.22;2.88;;;2.00;99.90;;;;;;5081827;28;20095;-73
2024/01/21 08:51:48;;;;;;;8.02;2.70;;;2.00;99.90;;;;;;5079030;28;20045;-73
2024/01/21 08:54:14;;;;;;;5.35;2.42;;;2.10;99.90;;;;;;5070856;28;20083;-73
2024/01/21 08:56:39;;;;;;;5.15;2.40;;;2.10;99.90;;;;;;5085663;28;20082;-73
2024/01/21 08:59:05;;;;;;;6.38;2.38;;;2.10;99.90;;;;;;5063723;28;20049;-73
2024/01/21 09:01:31;;;;;;;3.17;1.17;;;2.20;99.90;;;;;;5079588;28;20156;-73
2024/01/21 09:03:57;;;;;;;4.40;1.73;;;2.30;99.90;;;;;;5081585;28;20426;-73
2024/01/21 09:06:22;;;;;;;4.88;2.42;;;2.40;99.90;;;;;;5067154;28;20063;-73
2024/01/21 09:08:53;;;;;;;6.38;1.90;;;2.50;99.90;;;;;;5080672;28;20040;-73
2024/01/21 09:11:20;;;;;;;3.75;2.13;;;2.50;99.90;;;;;;5062776;28;20044;-74
2024/01/21 09:13:46;;;;;;;4.38;2.38;;;2.60;99.90;;;;;;5056052;28;20119;-74
2024/01/21 09:16:16;;;;;;;6.03;3.33;;;2.60;99.90;;;;;;5053230;28;20140;-74
2024/01/21 09:18:42;;;;;;;4.35;2.65;;;2.60;99.90;;;;;;5055220;28;20084;-74
2024/01/21 09:21:07;;;;;;;4.20;2.45;;;2.60;99.90;;;;;;5056036;28;20056;-74
2024/01/21 09:23:33;;;;;;;7.15;2.65;;;2.60;99.90;;;;;;5056323;28;20045;-74
2024/01/21 09:25:58;;;;;;;5.50;2.17;;;2.50;99.90;;;;;;5033310;28;20035;-74
2024/01/21 09:28:24;;;;;;;5.82;2.85;;;2.50;99.90;;;;;;5053353;28;20396;-74
2024/01/21 09:30:50;;;;;;;5.05;2.38;;;2.50;99.90;;;;;;5053295;28;20076;-74
2024/01/21 09:33:17;;;;;;;4.43;2.30;;;2.50;99.90;;;;;;5058772;28;20724;-74
2024/01/21 09:35:43;;;;;;;5.82;1.92;;;2.50;99.90;;;;;;5076684;28;20765;-74
2024/01/21 09:38:10;;;;;;;3.45;2.05;;;2.50;99.90;;;;;;5040923;28;20037;-74
2024/01/21 09:40:36;;;;;;;4.32;2.17;;;2.60;99.90;;;;;;5059029;28;20044;-74
2024/01/21 09:43:02;;;;;;;4.60;2.60;;;2.60;99.90;;;;;;5055315;28;20041;-74
2024/01/21 09:45:31;;;;;;;4.38;2.28;;;2.60;99.90;;;;;;5044564;28;20099;-74
2024/01/21 09:47:59;;;;;;;3.50;2.15;;;2.70;99.90;;;;;;5051455;28;20083;-74
2024/01/21 09:50:27;;;;;;;3.40;1.95;;;2.70;99.90;;;;;;5061737;28;20086;-75
2024/01/21 09:52:53;;;;;;;4.40;2.03;;;2.80;99.90;;;;;;5046170;28;20272;-74
2024/01/21 09:55:19;;;;;;;5.03;2.22;;;2.80;99.90;;;;;;5050849;28;20140;-75
2024/01/21 09:57:44;;;;;;;5.00;2.10;;;2.80;99.90;;;;;;5052314;28;20036;-75
2024/01/21 10:00:13;;;;;;;7.35;2.42;;;2.90;99.90;;;;;;5055173;28;20041;-75
2024/01/21 10:02:42;;;;;;;2.97;1.45;;;3.00;99.90;;;;;;5036976;28;20103;-74
2024/01/21 10:05:09;;;;;;;5.45;2.42;;;3.10;99.90;;;;;;5054075;28;20045;-74
2024/01/21 10:07:37;;;;;;;5.88;2.17;;;3.20;99.90;;;;;;5055193;28;20044;-75
2024/01/21 10:10:03;;;;;;;8.18;2.63;;;3.20;99.90;;;;;;5053604;28;20567;-75
2024/01/21 10:12:29;;;;;;;3.25;2.03;;;3.30;99.90;;;;;;5055452;28;20040;-75
2024/01/21 10:14:54;;;;;;;12.60;1.80;;;3.30;99.90;;;;;;5053294;28;20124;-74
2024/01/21 10:17:24;;;;;;;4.22;2.42;;;3.40;99.90;;;;;;5055327;28;20037;-75
2024/01/21 10:19:53;;;;;;;6.72;2.67;;;3.40;99.90;;;;;;5058023;28;20052;-74
2024/01/21 10:22:21;;;;;;;3.20;1.58;;;3.40;99.90;;;;;;5094897;28;20036;-74
2024/01/21 10:24:49;;;;;;;4.57;2.42;;;3.50;99.90;;;;;;5078654;28;20072;-74
2024/01/21 10:27:18;;;;;;;3.47;2.28;;;3.50;99.90;;;;;;5078551;28;20489;-74
2024/01/21 10:29:45;;;;;;;5.45;2.15;;;3.50;99.90;;;;;;5074322;28;20097;-74
2024/01/21 10:32:13;;;;;;;5.75;2.90;;;3.50;99.90;;;;;;5064831;28;20086;-74
2024/01/21 10:34:44;;;;;;;5.38;1.55;;;3.50;99.90;;;;;;5071800;28;20052;-74
2024/01/21 10:37:13;;;;;;;3.65;2.40;;;3.60;99.90;;;;;;5072470;28;20052;-75
2024/01/21 10:39:43;;;;;;;7.20;2.88;;;3.60;99.90;;;;;;5061344;28;20050;-74
2024/01/21 10:42:09;;;;;;;5.65;2.38;;;3.60;99.90;;;;;;5067914;28;20561;-74
2024/01/21 10:44:35;;;;;;;5.63;2.42;;;3.60;99.90;;;;;;5079468;28;20078;-74
2024/01/21 10:47:04;;;;;;;4.18;1.98;;;3.60;99.90;;;;;;5079138;28;20047;-74
2024/01/21 10:49:34;;;;;;;6.50;2.72;;;3.70;99.90;;;;;;5079720;28;20044;-74
2024/01/21 10:52:00;;;;;;;6.38;2.90;;;3.70;99.90;;;;;;5071072;28;20096;-74
2024/01/21 10:54:27;;;;;;;5.80;2.35;;;3.70;99.90;;;;;;5094821;28;20452;-74
2024/01/21 10:56:53;;;;;;;6.72;2.70;;;3.70;99.90;;;;;;5076240;28;20130;-74
2024/01/21 10:59:21;;;;;;;7.95;3.15;;;3.70;99.90;;;;;;5055424;28;20451;-83
2024/01/21 11:01:48;;;;;;;5.82;3.05;;;3.70;99.90;;;;;;5027402;28;20044;-82
2024/01/21 11:04:14;;;;;;;5.00;1.40;;;3.80;99.90;;;;;;5070376;28;20053;-82
2024/01/21 11:06:48;;;;;;;4.20;2.22;;;3.80;99.90;;;;;;5052416;28;20052;-81
2024/01/21 11:09:21;;;;;;;4.68;2.05;;;3.80;99.90;;;;;;5044619;28;20424;-82
2024/01/21 11:11:48;;;;;;;8.35;2.15;;;3.80;99.90;;;;;;5037343;28;20064;-82
2024/01/21 11:14:34;;;;;;;6.53;2.67;;;3.90;99.90;;;;;;5032691;28;20041;-82
2024/01/21 11:17:02;;;;;;;5.20;2.10;;;3.80;99.90;;;;;;5046364;28;20143;-81
2024/01/21 11:19:54;;;;;;;4.38;2.28;;;3.90;99.90;;;;;;5048232;28;20068;-82
2024/01/21 11:22:25;;;;;;;7.47;2.20;;;3.90;99.90;;;;;;5055178;28;20053;-82
2024/01/21 11:24:53;;;;;;;5.97;2.30;;;3.90;99.90;;;;;;5057782;28;20037;-82
2024/01/21 11:27:26;;;;;;;5.47;1.70;;;3.80;99.90;;;;;;5048751;28;20036;-82
2024/01/21 11:29:57;;;;;;;4.63;2.38;;;3.80;99.90;;;;;;5035962;28;20076;-81
2024/01/21 11:32:29;;;;;;;4.00;2.25;;;3.80;99.90;;;;;;5058713;28;20059;-81
2024/01/21 11:35:04;;;;;;;5.22;2.55;;;3.80;99.90;;;;;;5070689;28;20105;-82
2024/01/21 11:37:31;;;;;;;5.40;2.53;;;3.70;99.90;;;;;;5081716;28;20087;-81
2024/01/21 11:40:00;;;;;;;4.68;2.35;;;3.90;99.90;;;;;;5056193;28;20036;-81
2024/01/21 11:42:26;;;;;;;3.55;2.08;;;3.90;99.90;;;;;;5043021;28;20512;-81
2024/01/21 11:45:03;;;;;;;3.60;2.42;;;3.80;99.90;;;;;;5044204;28;20097;-81
2024/01/21 11:47:28;;;;;;;4.28;2.13;;;3.90;99.90;;;;;;5045233;28;20049;-80
2024/01/21 11:49:54;;;;;;;2.42;1.67;;;3.90;99.90;;;;;;5051730;28;20100;-81
2024/01/21 11:52:20;;;;;;;7.50;3.15;;;3.90;99.90;;;;;;5033713;28;20096;-80
2024/01/21 11:54:48;;;;;;;4.30;2.63;;;3.90;99.90;;;;;;5040096;28;20052;-81
2024/01/21 11:57:14;;;;;;;7.55;3.30;;;3.90;99.90;;;;;;5066131;28;20073;-81
2024/01/21 11:59:39;;;;;;;5.60;3.05;;;3.90;99.90;;;;;;5053310;28;20047;-80
2024/01/21 12:02:09;;;;;;;5.70;3.05;;;4.00;99.90;;;;;;5064706;28;20044;-81
2024/01/21 12:04:36;;;;;;;7.40;3.53;;;4.00;99.90;;;;;;5061843;28;20071;-81
2024/01/21 12:07:02;;;;;;;5.90;2.33;;;4.00;99.90;;;;;;5043637;28;20290;-81
2024/01/21 12:09:29;;;;;;;6.75;2.85;;;4.00;99.90;;;;;;5045021;28;20033;-80
2024/01/21 12:11:55;;;;;;;3.00;2.00;;;4.00;99.90;;;;;;5039708;28;20037;-81
2024/01/21 12:14:21;;;;;;;5.28;2.70;;;4.10;99.90;;;;;;5052647;28;20045;-81
2024/01/21 12:16:54;;;;;;;4.72;2.33;;;4.10;99.90;;;;;;5058603;28;20033;-81
2024/01/21 12:19:21;;;;;;;2.55;1.80;;;4.10;99.90;;;;;;5060642;28;20071;-81
2024/01/21 12:21:47;;;;;;;5.88;2.30;;;4.20;99.90;;;;;;5031897;28;20048;-81
2024/01/21 12:24:13;;;;;;;5.50;2.40;;;4.20;99.90;;;;;;5038593;28;20041;-81
2024/01/21 12:26:39;;;;;;;6.57;2.55;;;4.20;99.90;;;;;;5027810;28;20465;-82
2024/01/21 12:29:09;;;;;;;2.85;1.98;;;4.20;99.90;;;;;;5034285;28;20032;-81
2024/01/21 12:31:37;;;;;;;10.65;3.08;;;4.30;99.90;;;;;;5042055;28;20063;-81
2024/01/21 12:34:05;;;;;;;5.40;2.15;;;4.30;99.90;;;;;;5064958;28;20045;-81
2024/01/21 12:36:33;;;;;;;3.25;1.83;;;4.30;99.90;;;;;;5043075;28;20076;-81
2024/01/21 12:39:00;;;;;;;10.20;2.97;;;4.30;99.90;;;;;;5047357;28;20040;-81
2024/01/21 12:41:26;;;;;;;5.43;2.35;;;4.40;99.90;;;;;;5059679;28;20048;-81
2024/01/21 12:43:51;;;;;;;5.50;2.85;;;4.30;99.90;;;;;;5076538;28;20048;-81
2024/01/21 12:46:19;;;;;;;4.72;2.55;;;4.30;99.90;;;;;;5048851;28;20110;-81
2024/01/21 12:48:46;;;;;;;5.10;3.22;;;4.30;99.90;;;;;;5049128;28;20049;-81
2024/01/21 12:51:14;;;;;;;4.28;2.38;;;4.30;99.90;;;;;;5060073;28;20033;-81